| time (UTC) | temp F | wind direction | speed knots | gust knots | rain 1hr in | rain 24hr in | rain mn in | humidity % | barometer mb |
| 20260506134550 | 64 | 360 | 0.9 | 8.7 | 0.00 | 0.00 | 0.00 | 79 | 1001.0 |
| 20260506133053 | 63 | 360 | 0.9 | 2.6 | 0.00 | 0.00 | 0.00 | 80 | 1000.9 |
| 20260506131550 | 62 | 360 | 0.9 | 2.6 | 0.00 | 0.00 | 0.00 | 82 | 1000.8 |
| 20260506130053 | 61 | 360 | 0.9 | 2.6 | 0.00 | 0.00 | 0.00 | 84 | 1001.1 |
| 20260506124548 | 61 | 360 | 0.9 | 2.6 | 0.00 | 0.00 | 0.00 | 85 | 1001.2 |
| 20260506123047 | 60 | 360 | 0.9 | 3.5 | 0.00 | 0.00 | 0.00 | 85 | 1001.2 |
| 20260506121546 | 60 | 360 | 0.9 | 2.6 | 0.00 | 0.00 | 0.00 | 85 | 1001.5 |
| 20260506120054 | 59 | 360 | 0.9 | 3.5 | 0.00 | 0.00 | 0.00 | 86 | 1001.6 |
| 20260506114553 | 58 | 360 | 0.9 | 2.6 | 0.00 | 0.00 | 0.00 | 87 | 1001.6 |
| 20260506113045 | 58 | 360 | 1.7 | 2.6 | 0.00 | 0.00 | 0.00 | 88 | 1001.3 |
| 20260506111546 | 58 | 360 | 1.7 | 3.5 | 0.00 | 0.00 | 0.00 | 88 | 1001.5 |
| 20260506110043 | 57 | 360 | 0.9 | 5.2 | 0.00 | 0.00 | 0.00 | 88 | 1001.5 |
| 20260506104544 | 57 | 360 | 0.9 | 3.5 | 0.00 | 0.00 | 0.00 | 89 | 1001.7 |
| 20260506103041 | 57 | 360 | 1.7 | 3.5 | 0.00 | 0.00 | 0.00 | 89 | 1001.6 |
| 20260506101541 | 56 | 360 | 1.7 | 3.5 | 0.00 | 0.00 | 0.00 | 89 | 1001.4 |
| 20260506100041 | 56 | 360 | 0.9 | 3.5 | 0.00 | 0.00 | 0.00 | 89 | 1001.4 |
| 20260506094544 | 56 | 360 | 0.9 | 3.5 | 0.00 | 0.00 | 0.00 | 88 | 1001.2 |
| 20260506093101 | 56 | 360 | 1.7 | 3.5 | 0.00 | 0.00 | 0.00 | 88 | 1001.1 |
| 20260506091537 | 56 | 360 | 1.7 | 3.5 | 0.00 | 0.00 | 0.00 | 88 | 1001.1 |
| 20260506090039 | 57 | 360 | 0.9 | 3.5 | 0.00 | 0.00 | 0.00 | 87 | 1001.3 |
| 20260506084535 | 57 | 360 | 0.9 | 3.5 | 0.00 | 0.00 | 0.00 | 86 | 1001.4 |
| 20260506083037 | 57 | 360 | 1.7 | 3.5 | 0.00 | 0.00 | 0.00 | 86 | 1001.6 |
| 20260506081531 | 57 | 360 | 0.9 | 3.5 | 0.00 | 0.00 | 0.00 | 85 | 1001.6 |
| 20260506073027 | 58 | 360 | 1.7 | 3.5 | 0.00 | 0.00 | 0.00 | 83 | 1001.6 |
| 20260506071525 | 58 | 360 | 1.7 | 3.5 | 0.00 | 0.00 | 0.00 | 82 | 1001.6 |
| 20260506061517 | 60 | 360 | 0.9 | 3.5 | 0.00 | 0.00 | 0.00 | 77 | 1001.4 |
| 20260506044502 | 64 | 360 | 0.9 | 2.6 | 0.00 | 0.00 | 0.00 | 70 | 1002.1 |
| 20260506043100 | 64 | 360 | 0.9 | 3.5 | 0.00 | 0.00 | 0.00 | 69 | 1001.9 |
| 20260506041609 | 65 | 360 | 0.9 | 2.6 | 0.00 | 0.00 | 0.00 | 68 | 1001.9 |
| 20260506040101 | 65 | 360 | 0.9 | 2.6 | 0.00 | 0.00 | 0.00 | 68 | 1001.8 |
| 20260506034558 | 65 | 360 | 0.9 | 2.6 | 0.00 | 0.00 | 0.00 | 67 | 1001.9 |
| 20260506033056 | 65 | 360 | 1.7 | 4.3 | 0.00 | 0.00 | 0.00 | 67 | 1001.8 |
| 20260506031556 | 66 | 360 | 0.9 | 3.5 | 0.00 | 0.00 | 0.00 | 66 | 1001.7 |
| 20260506030053 | 66 | 360 | 0.9 | 4.3 | 0.00 | 0.00 | 0.00 | 65 | 1001.8 |
| 20260506024555 | 66 | 360 | 0.9 | 2.6 | 0.00 | 0.00 | 0.00 | 65 | 1001.8 |
| 20260506023056 | 66 | 360 | 0.9 | 2.6 | 0.00 | 0.00 | 0.00 | 64 | 1001.8 |
| 20260506021551 | 67 | 360 | 0.9 | 4.3 | 0.00 | 0.00 | 0.00 | 63 | 1001.8 |
| 20260506020117 | 67 | 360 | 0.9 | 3.5 | 0.00 | 0.00 | 0.00 | 63 | 1001.9 |
| 20260506014551 | 67 | 360 | 0.9 | 2.6 | 0.00 | 0.00 | 0.00 | 63 | 1001.6 |
| 20260506013050 | 67 | 360 | 0.9 | 5.2 | 0.00 | 0.00 | 0.00 | 63 | 1001.5 |
| 20260506011550 | 67 | 360 | 0.9 | 2.6 | 0.00 | 0.00 | 0.00 | 62 | 1001.3 |
| 20260506010049 | 68 | 360 | 0.9 | 2.6 | 0.00 | 0.00 | 0.00 | 62 | 1001.1 |
| 20260506004549 | 68 | 360 | 0.0 | 2.6 | 0.00 | 0.00 | 0.00 | 62 | 1001.1 |
| 20260506003048 | 68 | 360 | 0.0 | 2.6 | 0.00 | 0.00 | 0.00 | 62 | 1000.9 |
| 20260506001556 | 68 | 360 | 0.9 | 2.6 | 0.00 | 0.00 | 0.00 | 62 | 1000.7 |
| 20260506000059 | 68 | 360 | 0.9 | 2.6 | 0.00 | 0.00 | 0.00 | 61 | 1000.5 |
| 20260505234547 | 69 | 360 | 0.9 | 3.5 | 0.00 | 0.00 | 0.00 | 60 | 1000.4 |
| 20260505233051 | 69 | 360 | 0.9 | 2.6 | 0.00 | 0.00 | 0.00 | 59 | 1000.2 |
| 20260505231553 | 70 | 360 | 1.7 | 5.2 | 0.00 | 0.00 | 0.00 | 58 | 1000.1 |
| 20260505230050 | 71 | 360 | 1.7 | 7.0 | 0.00 | 0.00 | 0.00 | 56 | 999.7 |
| 20260505224549 | 73 | 168 | 1.7 | 4.3 | 0.00 | 0.00 | 0.00 | 55 | 999.6 |
| 20260505223044 | 74 | 175 | 1.7 | 5.2 | 0.00 | 0.00 | 0.00 | 54 | 999.5 |
| 20260505221550 | 74 | 149 | 1.7 | 4.3 | 0.00 | 0.00 | 0.00 | 56 | 999.3 |
| 20260505220057 | 74 | 127 | 1.7 | 5.2 | 0.00 | 0.00 | 0.00 | 55 | 999.4 |
| 20260505214551 | 77 | 171 | 1.7 | 5.2 | 0.00 | 0.00 | 0.00 | 52 | 999.3 |
| 20260505213042 | 77 | 186 | 0.9 | 4.3 | 0.00 | 0.00 | 0.00 | 52 | 999.5 |
| 20260505211608 | 77 | 124 | 2.6 | 4.3 | 0.00 | 0.00 | 0.00 | 50 | 999.0 |
| 20260505210045 | 78 | 160 | 2.6 | 6.1 | 0.00 | 0.00 | 0.00 | 49 | 998.8 |
| 20260505204553 | 79 | 150 | 2.6 | 6.1 | 0.00 | 0.00 | 0.00 | 49 | 999.2 |
| 20260505203037 | 78 | 158 | 2.6 | 8.7 | 0.00 | 0.00 | 0.00 | 49 | 999.3 |
| 20260505201539 | 79 | 194 | 0.9 | 6.1 | 0.00 | 0.00 | 0.00 | 48 | 999.2 |
| 20260505200037 | 80 | 235 | 1.7 | 6.1 | 0.00 | 0.00 | 0.00 | 45 | 999.5 |
| 20260505194535 | 80 | 166 | 2.6 | 7.0 | 0.00 | 0.00 | 0.00 | 45 | 999.5 |
| 20260505193033 | 80 | 123 | 1.7 | 7.0 | 0.00 | 0.00 | 0.00 | 46 | 999.5 |
| 20260505191535 | 80 | 168 | 1.7 | 6.1 | 0.00 | 0.00 | 0.00 | 47 | 999.4 |
| 20260505190031 | 79 | 155 | 1.7 | 7.0 | 0.00 | 0.00 | 0.00 | 46 | 999.7 |
| 20260505184537 | 80 | 190 | 2.6 | 5.2 | 0.00 | 0.00 | 0.00 | 46 | 999.8 |
| 20260505183028 | 79 | 142 | 1.7 | 7.8 | 0.00 | 0.00 | 0.00 | 47 | 1000.1 |
| 20260505181529 | 79 | 160 | 2.6 | 6.1 | 0.00 | 0.00 | 0.00 | 48 | 999.9 |
| 20260505180027 | 80 | 220 | 1.7 | 6.1 | 0.00 | 0.00 | 0.00 | 47 | 1000.0 |
| 20260505174535 | 80 | 80 | 2.6 | 6.1 | 0.00 | 0.00 | 0.00 | 44 | 1000.1 |
| 20260505173023 | 80 | 196 | 1.7 | 7.0 | 0.00 | 0.00 | 0.00 | 44 | 1000.3 |
| 20260505171532 | 80 | 251 | 2.6 | 7.8 | 0.00 | 0.00 | 0.00 | 44 | 1000.3 |
| 20260505170023 | 79 | 208 | 3.5 | 11.3 | 0.00 | 0.00 | 0.00 | 45 | 1000.5 |
| 20260505164516 | 78 | 188 | 1.7 | 5.2 | 0.00 | 0.00 | 0.00 | 45 | 1000.8 |
| 20260505163014 | 78 | 355 | 1.7 | 4.3 | 0.00 | 0.00 | 0.00 | 49 | 1001.3 |
| 20260505161511 | 78 | 248 | 1.7 | 5.2 | 0.00 | 0.00 | 0.00 | 48 | 1001.6 |
| 20260505153100 | 73 | 360 | 1.7 | 7.0 | 0.00 | 0.00 | 0.00 | 55 | 1001.8 |
| 20260505151602 | 72 | 360 | 0.9 | 4.3 | 0.00 | 0.00 | 0.00 | 57 | 1002.1 |